Time;durP1;ratioP1;P1;durP2;ratioP2;P2;SDS_P1;SDS_P2;PMS_P1;PMS_P2;Temp;Humidity;BMP_temperature;BMP_pressure;BME280_temperature;BME280_humidity;BME280_pressure;Samples;Min_cycle;Max_cycle;Signal;HPM_P1;HPM_P2
2021/12/02 00:02:08;;;;;;;3.27;2.10;;;6.60;99.90;;;;;;5092275;28;20207;-83
2021/12/02 00:04:37;;;;;;;2.97;1.93;;;6.50;99.90;;;;;;5087568;28;20397;-83
2021/12/02 00:07:04;;;;;;;2.70;1.70;;;6.50;99.90;;;;;;5092137;28;20202;-83
2021/12/02 00:09:31;;;;;;;4.90;1.97;;;6.50;99.90;;;;;;5088428;28;20179;-83
2021/12/02 00:11:56;;;;;;;5.07;1.87;;;6.60;99.90;;;;;;5090927;28;20221;-83
2021/12/02 00:14:25;;;;;;;2.20;2.00;;;6.50;99.90;;;;;;5089304;28;20219;-84
2021/12/02 00:22:11;;;;;;;1.70;1.60;;;6.40;99.90;;;;;;5093077;28;20276;-83
2021/12/02 00:24:39;;;;;;;3.33;1.80;;;6.40;99.90;;;;;;5095286;28;20187;-83
2021/12/02 00:27:10;;;;;;;2.10;1.90;;;6.40;99.90;;;;;;5080810;28;20221;-83
2021/12/02 00:29:38;;;;;;;3.43;1.90;;;6.30;99.90;;;;;;5094532;28;20198;-83
2021/12/02 00:32:07;;;;;;;1.70;1.60;;;6.30;99.90;;;;;;5092742;28;20214;-83
2021/12/02 00:34:35;;;;;;;1.63;1.53;;;6.30;99.90;;;;;;5093894;28;20210;-83
2021/12/02 00:37:01;;;;;;;3.13;1.60;;;6.40;99.90;;;;;;5092158;28;20270;-83
2021/12/02 00:39:29;;;;;;;5.53;1.60;;;6.50;99.90;;;;;;5088895;28;20243;-84
2021/12/02 00:41:55;;;;;;;1.63;1.50;;;6.50;99.90;;;;;;5092577;28;20221;-84
2021/12/02 00:44:21;;;;;;;1.53;1.33;;;6.50;99.90;;;;;;5091274;28;20214;-84
2021/12/02 00:46:48;;;;;;;2.80;1.40;;;6.40;99.90;;;;;;5074785;28;20198;-84
2021/12/02 00:49:17;;;;;;;3.20;1.87;;;6.40;99.90;;;;;;5091023;28;20202;-84
2021/12/02 00:51:57;;;;;;;2.10;1.60;;;6.40;99.90;;;;;;5095997;28;20199;-84
2021/12/02 00:54:25;;;;;;;2.07;1.73;;;6.40;99.90;;;;;;5072054;28;20242;-84
2021/12/02 00:56:52;;;;;;;1.73;1.63;;;6.40;99.90;;;;;;5092246;28;20194;-84
2021/12/02 00:59:19;;;;;;;2.97;1.80;;;6.50;99.90;;;;;;5075251;28;20192;-84
2021/12/02 01:01:47;;;;;;;1.70;1.60;;;6.50;99.90;;;;;;5095212;28;20218;-83
2021/12/02 01:04:16;;;;;;;1.80;1.70;;;6.50;99.90;;;;;;5070882;28;20187;-84
2021/12/02 01:06:42;;;;;;;2.60;1.70;;;6.40;99.90;;;;;;5091021;28;20278;-84
2021/12/02 01:09:10;;;;;;;2.80;1.80;;;6.30;99.90;;;;;;5094907;28;20195;-84
2021/12/02 01:11:36;;;;;;;3.93;1.77;;;6.30;99.90;;;;;;5094467;28;20278;-83
2021/12/02 01:14:03;;;;;;;3.67;1.90;;;6.20;99.90;;;;;;5097448;28;20644;-83
2021/12/02 01:16:29;;;;;;;4.07;2.77;;;6.10;99.90;;;;;;5114171;28;20202;-83
2021/12/02 01:18:55;;;;;;;2.20;1.80;;;6.20;99.90;;;;;;5095455;28;20250;-83
2021/12/02 01:21:24;;;;;;;2.33;1.97;;;6.30;99.90;;;;;;5113419;28;20206;-82
2021/12/02 01:23:54;;;;;;;3.83;2.17;;;6.40;99.90;;;;;;5116438;28;20182;-81
2021/12/02 01:26:20;;;;;;;2.27;1.80;;;6.30;99.90;;;;;;5113213;28;20228;-82
2021/12/02 01:28:48;;;;;;;2.80;1.70;;;6.20;99.90;;;;;;5105316;28;20213;-83
2021/12/02 01:31:14;;;;;;;3.87;2.03;;;6.20;99.90;;;;;;5090559;28;20223;-84
2021/12/02 01:33:42;;;;;;;2.43;1.97;;;6.20;99.90;;;;;;5094013;28;20213;-84
2021/12/02 01:36:07;;;;;;;3.03;2.07;;;6.10;99.90;;;;;;5092367;28;20190;-84
2021/12/02 01:38:34;;;;;;;4.10;2.13;;;6.10;99.90;;;;;;5088734;28;20199;-83
2021/12/02 01:41:02;;;;;;;2.43;1.87;;;6.00;99.90;;;;;;5056355;28;20620;-83
2021/12/02 01:43:49;;;;;;;3.23;1.87;;;6.00;99.90;;;;;;5074834;28;20189;-83
2021/12/02 01:46:26;;;;;;;4.83;1.83;;;5.90;99.90;;;;;;5092965;28;20677;-84
2021/12/02 01:49:04;;;;;;;5.33;1.93;;;6.00;99.90;;;;;;5093479;28;20190;-84
2021/12/02 01:51:41;;;;;;;2.53;1.60;;;5.90;99.90;;;;;;5094464;28;20639;-84
2021/12/02 01:54:12;;;;;;;3.10;1.70;;;5.90;99.90;;;;;;5094392;28;20207;-84
2021/12/02 01:57:08;;;;;;;3.70;1.70;;;5.90;99.90;;;;;;5089997;28;20187;-83
2021/12/02 01:59:36;;;;;;;3.77;1.93;;;5.80;99.90;;;;;;5083131;28;20227;-84
2021/12/02 02:02:04;;;;;;;2.93;1.60;;;5.70;99.90;;;;;;5090306;28;20312;-84
2021/12/02 02:04:30;;;;;;;4.13;1.80;;;5.70;99.90;;;;;;5092282;28;20214;-83
2021/12/02 02:06:59;;;;;;;2.63;1.80;;;5.60;99.90;;;;;;5092600;28;20207;-83
2021/12/02 02:09:27;;;;;;;1.70;1.60;;;5.60;99.90;;;;;;5074550;28;20266;-83
2021/12/02 02:11:54;;;;;;;3.50;1.70;;;5.70;99.90;;;;;;5092876;28;20211;-83
2021/12/02 02:14:21;;;;;;;3.13;1.73;;;5.70;99.90;;;;;;5093751;28;20727;-83
2021/12/02 02:16:48;;;;;;;2.87;1.77;;;5.60;99.90;;;;;;5091510;28;20257;-84
2021/12/02 02:19:14;;;;;;;2.53;1.80;;;5.60;99.90;;;;;;5076382;28;20433;-84
2021/12/02 02:21:41;;;;;;;3.80;1.70;;;5.60;99.90;;;;;;5092313;28;20297;-84
2021/12/02 02:24:12;;;;;;;2.37;1.43;;;5.60;99.90;;;;;;5073651;28;20652;-84
2021/12/02 02:26:38;;;;;;;1.77;1.67;;;5.50;99.90;;;;;;5092102;28;20654;-84
2021/12/02 02:29:06;;;;;;;7.53;1.90;;;5.50;99.90;;;;;;5092163;28;20203;-83
2021/12/02 02:31:35;;;;;;;3.13;1.70;;;5.40;99.90;;;;;;5090205;28;20207;-84
2021/12/02 02:34:00;;;;;;;1.80;1.50;;;5.50;99.90;;;;;;5091428;28;20226;-84
2021/12/02 02:36:32;;;;;;;2.23;1.70;;;5.50;99.90;;;;;;5093599;28;20256;-84
2021/12/02 02:38:59;;;;;;;2.33;1.70;;;5.50;99.90;;;;;;5092814;28;20191;-84
2021/12/02 02:41:28;;;;;;;3.20;1.50;;;5.40;99.90;;;;;;5091689;28;20214;-83
2021/12/02 02:43:57;;;;;;;3.87;1.40;;;5.50;99.90;;;;;;5091789;28;20264;-83
2021/12/02 02:46:34;;;;;;;4.43;1.67;;;5.40;99.90;;;;;;5092135;28;20198;-83
2021/12/02 02:49:01;;;;;;;2.23;1.60;;;5.50;99.90;;;;;;5089991;28;20692;-83
2021/12/02 02:51:30;;;;;;;3.00;1.50;;;5.40;99.90;;;;;;5096629;28;20213;-84
2021/12/02 02:53:57;;;;;;;1.80;1.60;;;5.50;99.90;;;;;;5093303;28;20218;-83
2021/12/02 02:56:27;;;;;;;2.00;1.47;;;5.50;99.90;;;;;;5088482;28;20194;-83
2021/12/02 02:59:09;;;;;;;2.17;1.43;;;5.50;99.90;;;;;;5086453;28;20202;-84
2021/12/02 03:05:01;;;;;;;1.93;1.73;;;5.60;99.90;;;;;;4986034;28;20191;-84
2021/12/02 03:07:34;;;;;;;3.83;1.50;;;5.40;99.90;;;;;;4969124;28;20666;-83
2021/12/02 03:10:11;;;;;;;2.27;1.70;;;5.50;99.90;;;;;;5049094;28;20660;-83
2021/12/02 03:12:53;;;;;;;2.37;1.60;;;5.50;99.90;;;;;;5087956;28;20219;-83
2021/12/02 03:17:46;;;;;;;4.27;1.50;;;5.50;99.90;;;;;;5068193;28;20183;-83
2021/12/02 03:20:12;;;;;;;3.10;1.53;;;5.50;99.90;;;;;;5071007;28;20190;-83
2021/12/02 03:22:39;;;;;;;2.87;1.37;;;5.50;99.90;;;;;;5088637;28;20211;-83
2021/12/02 03:25:07;;;;;;;1.90;1.27;;;5.50;99.90;;;;;;5086361;28;20183;-83
2021/12/02 03:27:32;;;;;;;2.23;1.40;;;5.50;99.90;;;;;;5066154;28;20192;-83
2021/12/02 03:29:58;;;;;;;3.23;1.23;;;5.50;99.90;;;;;;5089525;28;20195;-83
2021/12/02 03:32:24;;;;;;;3.33;1.40;;;5.50;99.90;;;;;;5096854;28;20214;-83
2021/12/02 03:34:50;;;;;;;1.30;1.20;;;5.30;99.90;;;;;;5098124;28;20222;-83
2021/12/02 03:37:17;;;;;;;3.63;1.30;;;5.40;99.90;;;;;;5096878;28;20199;-83
2021/12/02 03:39:43;;;;;;;1.57;1.33;;;5.40;99.90;;;;;;5113947;28;20173;-82
2021/12/02 03:42:09;;;;;;;2.40;1.47;;;5.50;99.90;;;;;;5096272;28;20218;-83
2021/12/02 03:44:35;;;;;;;3.03;1.33;;;5.50;99.90;;;;;;5094996;28;20230;-83
2021/12/02 03:47:01;;;;;;;1.50;1.30;;;5.50;99.90;;;;;;5092674;28;20222;-83
2021/12/02 03:49:27;;;;;;;1.60;1.30;;;5.50;99.90;;;;;;5091262;28;20650;-83
2021/12/02 03:51:54;;;;;;;2.93;1.30;;;5.50;99.90;;;;;;5089828;28;20227;-83
2021/12/02 03:54:20;;;;;;;2.03;1.50;;;5.50;99.90;;;;;;5076885;28;20218;-83
2021/12/02 03:56:45;;;;;;;3.00;1.60;;;5.60;99.90;;;;;;5093547;28;20281;-83
2021/12/02 03:59:12;;;;;;;3.03;1.50;;;5.70;99.90;;;;;;5090818;28;20202;-83
2021/12/02 04:01:38;;;;;;;2.23;1.50;;;5.60;99.90;;;;;;5096922;28;20258;-82
2021/12/02 04:04:03;;;;;;;1.27;1.20;;;5.70;99.90;;;;;;5102454;28;20197;-83
2021/12/02 04:06:29;;;;;;;2.47;1.47;;;5.70;99.90;;;;;;5061750;28;20199;-84
2021/12/02 04:16:23;;;;;;;2.87;1.57;;;5.70;99.90;;;;;;5093841;28;20193;-84
2021/12/02 04:18:49;;;;;;;5.40;1.90;;;5.70;99.90;;;;;;5096271;28;20194;-83
2021/12/02 04:21:15;;;;;;;3.43;1.57;;;5.60;99.90;;;;;;5080585;28;20206;-83
2021/12/02 04:23:41;;;;;;;2.43;1.60;;;5.70;99.90;;;;;;5104673;28;20191;-84
2021/12/02 04:26:07;;;;;;;3.37;1.90;;;5.60;99.90;;;;;;5083380;28;20255;-83
2021/12/02 04:28:33;;;;;;;2.77;1.60;;;5.60;99.90;;;;;;5086569;28;20351;-84
2021/12/02 04:31:00;;;;;;;3.33;1.70;;;5.60;99.90;;;;;;5098262;28;20223;-84
2021/12/02 04:33:26;;;;;;;1.93;1.50;;;5.60;99.90;;;;;;5098774;28;20187;-84
2021/12/02 04:35:52;;;;;;;3.13;1.90;;;5.70;99.90;;;;;;5103156;28;20194;-84
2021/12/02 04:38:20;;;;;;;2.40;1.60;;;5.60;99.90;;;;;;5102520;28;20194;-83
2021/12/02 04:40:46;;;;;;;2.77;1.60;;;5.70;99.90;;;;;;5100624;28;20187;-84
2021/12/02 04:43:12;;;;;;;3.73;1.63;;;5.70;99.90;;;;;;5096989;28;20191;-83
2021/12/02 04:45:37;;;;;;;1.90;1.30;;;5.60;99.90;;;;;;5094004;28;20250;-83
2021/12/02 04:48:03;;;;;;;2.97;1.67;;;5.60;99.90;;;;;;5099039;28;20190;-84
2021/12/02 04:50:30;;;;;;;1.83;1.60;;;5.70;99.90;;;;;;5079876;28;20378;-82
2021/12/02 04:52:56;;;;;;;2.40;1.50;;;5.60;99.90;;;;;;5101377;28;20235;-83
2021/12/02 04:55:21;;;;;;;1.83;1.63;;;5.60;99.90;;;;;;5096773;28;20215;-84
2021/12/02 04:57:48;;;;;;;2.17;1.50;;;5.60;99.90;;;;;;5099335;28;20179;-83
2021/12/02 05:00:15;;;;;;;2.93;1.40;;;5.60;99.90;;;;;;5096225;28;20606;-83
2021/12/02 05:02:41;;;;;;;4.47;1.33;;;5.70;99.90;;;;;;5098762;28;20229;-83
2021/12/02 05:05:08;;;;;;;3.50;1.50;;;5.60;99.90;;;;;;5079316;28;20237;-84
2021/12/02 05:07:34;;;;;;;3.70;1.47;;;5.70;99.90;;;;;;5095196;28;20217;-83
2021/12/02 05:10:00;;;;;;;2.80;1.50;;;5.60;99.90;;;;;;5081295;28;20191;-83
2021/12/02 05:12:26;;;;;;;2.63;1.50;;;5.50;99.90;;;;;;5101184;28;20297;-83
2021/12/02 05:14:52;;;;;;;2.23;1.60;;;5.50;99.90;;;;;;5083154;28;20585;-82
2021/12/02 05:17:18;;;;;;;1.70;1.50;;;5.50;99.90;;;;;;5096581;28;20198;-83
2021/12/02 05:19:44;;;;;;;3.37;1.80;;;5.50;99.90;;;;;;5071479;28;20202;-83
2021/12/02 05:22:10;;;;;;;3.90;1.50;;;5.50;99.90;;;;;;5090096;28;20206;-82
2021/12/02 05:24:36;;;;;;;2.53;1.37;;;5.50;99.90;;;;;;5092299;28;20214;-82
2021/12/02 05:27:02;;;;;;;2.20;1.47;;;5.40;99.90;;;;;;5089395;28;20578;-84
2021/12/02 05:29:28;;;;;;;3.23;1.60;;;5.40;99.90;;;;;;5088753;28;20207;-84
2021/12/02 05:31:53;;;;;;;2.43;1.50;;;5.40;99.90;;;;;;5070418;28;20258;-84
2021/12/02 05:34:19;;;;;;;1.60;1.37;;;5.40;99.90;;;;;;5089900;28;20223;-84
2021/12/02 05:36:45;;;;;;;2.63;1.57;;;5.40;99.90;;;;;;5094495;28;20239;-84
2021/12/02 05:39:10;;;;;;;2.07;1.43;;;5.40;99.90;;;;;;5097166;28;20202;-84
2021/12/02 05:41:36;;;;;;;3.13;2.13;;;5.30;99.90;;;;;;5074429;28;20571;-84
2021/12/02 05:44:02;;;;;;;3.17;1.57;;;5.30;99.90;;;;;;5091658;28;20255;-84
2021/12/02 05:46:28;;;;;;;2.70;1.63;;;5.20;99.90;;;;;;5098409;28;20198;-84
2021/12/02 05:48:54;;;;;;;2.87;1.77;;;5.20;99.90;;;;;;5107838;28;20192;-84
2021/12/02 05:51:20;;;;;;;2.03;1.33;;;5.20;99.90;;;;;;5099541;28;20223;-84
2021/12/02 05:53:45;;;;;;;2.73;1.40;;;5.20;99.90;;;;;;5095101;28;20226;-83
2021/12/02 05:56:11;;;;;;;2.63;1.40;;;5.20;99.90;;;;;;5102947;28;20202;-84
2021/12/02 05:58:37;;;;;;;3.40;1.30;;;5.10;99.90;;;;;;5074344;28;20304;-83
2021/12/02 06:01:03;;;;;;;1.80;1.40;;;5.10;99.90;;;;;;5088743;28;20231;-84
2021/12/02 06:03:30;;;;;;;1.67;1.30;;;5.10;99.90;;;;;;5070127;28;20654;-84
2021/12/02 06:05:56;;;;;;;2.10;1.50;;;5.20;99.90;;;;;;5086789;28;20195;-84
2021/12/02 06:08:22;;;;;;;2.73;1.43;;;5.10;99.90;;;;;;5090306;28;20760;-84
2021/12/02 06:10:48;;;;;;;1.50;1.40;;;5.10;99.90;;;;;;5092271;28;20195;-84
2021/12/02 06:13:13;;;;;;;2.53;1.30;;;5.20;99.90;;;;;;5097388;28;20252;-83
2021/12/02 06:15:39;;;;;;;2.43;1.43;;;5.20;99.90;;;;;;5074771;28;20206;-85
2021/12/02 06:18:05;;;;;;;2.17;1.40;;;5.20;99.90;;;;;;5095355;28;20734;-83
2021/12/02 06:20:31;;;;;;;1.57;1.40;;;5.30;99.90;;;;;;5094729;28;20218;-84
2021/12/02 06:22:56;;;;;;;1.53;1.43;;;5.30;99.90;;;;;;5086313;28;20276;-84
2021/12/02 06:27:53;;;;;;;2.97;1.40;;;5.30;99.90;;;;;;5087228;28;20255;-84
2021/12/02 06:30:21;;;;;;;1.67;1.50;;;5.20;99.90;;;;;;5087227;28;20222;-84
2021/12/02 06:32:47;;;;;;;1.73;1.40;;;5.30;99.90;;;;;;5088369;28;20206;-85
2021/12/02 06:35:13;;;;;;;1.80;1.67;;;5.30;99.90;;;;;;5090182;28;20240;-85
2021/12/02 06:37:39;;;;;;;3.90;1.87;;;5.20;99.90;;;;;;5071223;28;20191;-84
2021/12/02 06:40:07;;;;;;;10.57;1.80;;;5.20;99.90;;;;;;5090218;28;20198;-84
2021/12/02 06:42:33;;;;;;;2.73;1.40;;;5.30;99.90;;;;;;5088542;28;20237;-85
2021/12/02 06:45:00;;;;;;;3.20;1.50;;;5.30;99.90;;;;;;5075104;28;20579;-84
2021/12/02 06:47:32;;;;;;;1.50;1.40;;;5.20;99.90;;;;;;5081523;28;20178;-85
2021/12/02 06:50:01;;;;;;;2.47;1.60;;;5.20;99.90;;;;;;5085386;28;20215;-84
2021/12/02 06:52:27;;;;;;;3.70;1.60;;;5.20;99.90;;;;;;5095234;28;20285;-84
2021/12/02 06:54:54;;;;;;;3.53;2.23;;;5.20;99.90;;;;;;5059492;28;20234;-86
2021/12/02 06:57:20;;;;;;;3.23;1.80;;;5.20;99.90;;;;;;5110143;28;20190;-85
2021/12/02 06:59:45;;;;;;;4.10;1.70;;;5.10;99.90;;;;;;5107939;28;20183;-84
2021/12/02 07:02:12;;;;;;;4.53;1.93;;;5.10;99.90;;;;;;5096387;28;20221;-84
2021/12/02 07:04:37;;;;;;;3.93;2.17;;;5.10;99.90;;;;;;5092696;28;20225;-85
2021/12/02 07:07:03;;;;;;;4.33;2.20;;;5.10;99.90;;;;;;5090592;28;20600;-85
2021/12/02 07:09:29;;;;;;;1.73;1.60;;;5.30;99.90;;;;;;5071597;28;20191;-85
2021/12/02 07:11:55;;;;;;;2.87;2.10;;;5.30;99.90;;;;;;5075267;28;20724;-85
2021/12/02 07:14:22;;;;;;;4.90;2.07;;;5.30;99.90;;;;;;5089572;28;20755;-86
2021/12/02 07:16:48;;;;;;;5.07;2.40;;;5.30;99.90;;;;;;5090672;28;20183;-86
2021/12/02 07:19:14;;;;;;;4.00;2.07;;;5.30;99.90;;;;;;5091423;28;20233;-86
2021/12/02 07:21:40;;;;;;;2.17;1.97;;;5.30;99.90;;;;;;5074017;28;20215;-86
2021/12/02 07:24:15;;;;;;;2.50;2.10;;;5.30;99.90;;;;;;5090760;28;20199;-84
2021/12/02 07:26:42;;;;;;;3.37;2.27;;;5.30;99.90;;;;;;5089639;28;20325;-83
2021/12/02 07:29:13;;;;;;;2.23;2.03;;;5.30;99.90;;;;;;5091438;28;20281;-83
2021/12/02 07:31:40;;;;;;;3.73;2.27;;;5.40;99.90;;;;;;5090331;28;20839;-83
2021/12/02 07:34:07;;;;;;;4.97;2.30;;;5.40;99.90;;;;;;5074252;28;20226;-83
2021/12/02 07:36:35;;;;;;;2.97;2.30;;;5.20;99.90;;;;;;5093700;28;20211;-83
2021/12/02 07:39:04;;;;;;;4.33;2.40;;;5.30;99.90;;;;;;5100332;28;20199;-83
2021/12/02 07:41:30;;;;;;;4.13;2.00;;;5.30;99.90;;;;;;5091613;28;20565;-83
2021/12/02 07:43:56;;;;;;;3.53;2.30;;;5.40;99.90;;;;;;5088203;28;20191;-83
2021/12/02 07:46:21;;;;;;;4.63;2.40;;;5.30;99.90;;;;;;5088345;28;20294;-83
2021/12/02 07:48:48;;;;;;;4.80;2.47;;;5.20;99.90;;;;;;5081072;28;20678;-83
2021/12/02 07:51:16;;;;;;;4.57;2.30;;;5.20;99.90;;;;;;5070724;28;20237;-83
2021/12/02 07:53:47;;;;;;;2.30;2.10;;;5.20;99.90;;;;;;5078809;28;20203;-83
2021/12/02 07:56:16;;;;;;;3.17;2.27;;;5.30;99.90;;;;;;5071257;28;20227;-86
2021/12/02 07:58:44;;;;;;;4.17;2.43;;;5.20;99.90;;;;;;5089042;28;20199;-86
2021/12/02 08:01:12;;;;;;;3.57;2.57;;;5.20;99.90;;;;;;5083703;28;20289;-86
2021/12/02 08:03:43;;;;;;;3.13;2.23;;;5.30;99.90;;;;;;5072888;28;20316;-84
2021/12/02 08:06:11;;;;;;;4.73;3.10;;;5.30;99.90;;;;;;5088703;28;20179;-83
2021/12/02 08:08:38;;;;;;;4.97;2.50;;;5.30;99.90;;;;;;5109517;28;20187;-86
2021/12/02 08:11:06;;;;;;;5.77;2.70;;;5.40;99.90;;;;;;5080025;28;20199;-84
2021/12/02 08:13:32;;;;;;;4.53;2.80;;;5.40;99.90;;;;;;5113630;28;20176;-86
2021/12/02 08:15:58;;;;;;;4.20;2.70;;;5.30;99.90;;;;;;5100765;28;20256;-83
2021/12/02 08:18:23;;;;;;;3.00;2.40;;;5.30;99.90;;;;;;5096355;28;20191;-84
2021/12/02 08:20:49;;;;;;;4.70;2.87;;;5.30;99.90;;;;;;5073959;28;20206;-84
2021/12/02 08:23:15;;;;;;;6.30;2.80;;;5.30;99.90;;;;;;5077090;28;20191;-83
2021/12/02 08:25:41;;;;;;;3.53;2.20;;;5.20;99.90;;;;;;5099167;28;20199;-85
2021/12/02 08:28:07;;;;;;;2.57;2.37;;;5.20;99.90;;;;;;5071390;28;20200;-85
2021/12/02 08:30:34;;;;;;;2.10;1.90;;;5.00;99.90;;;;;;5102437;28;20203;-85
2021/12/02 08:33:01;;;;;;;3.10;2.20;;;5.00;99.90;;;;;;5074057;28;20301;-85
2021/12/02 08:35:28;;;;;;;5.10;1.80;;;4.90;99.90;;;;;;5089637;28;20214;-85
2021/12/02 08:37:59;;;;;;;2.50;1.63;;;4.80;99.90;;;;;;5089338;28;20252;-85
2021/12/02 08:40:30;;;;;;;1.50;1.40;;;4.80;99.90;;;;;;5071319;28;20694;-85
2021/12/02 08:42:57;;;;;;;3.00;1.70;;;4.80;99.90;;;;;;5089678;28;20677;-85
2021/12/02 08:45:23;;;;;;;1.63;1.53;;;4.70;99.90;;;;;;5087558;28;20182;-85
2021/12/02 08:47:49;;;;;;;3.37;1.60;;;4.70;99.90;;;;;;5092324;28;20203;-83
2021/12/02 08:50:17;;;;;;;3.13;1.57;;;4.60;99.90;;;;;;5091254;28;20199;-83
2021/12/02 08:52:45;;;;;;;1.40;1.30;;;4.60;99.90;;;;;;5075957;28;20648;-84
2021/12/02 08:55:11;;;;;;;1.50;1.37;;;4.60;99.90;;;;;;5089823;28;20223;-85
2021/12/02 08:57:37;;;;;;;1.80;1.30;;;4.70;99.90;;;;;;5084671;28;20256;-85
2021/12/02 09:00:06;;;;;;;1.47;1.30;;;4.70;99.90;;;;;;5087748;28;20596;-83
2021/12/02 09:02:32;;;;;;;1.63;1.53;;;4.80;99.90;;;;;;5072123;28;20231;-83
2021/12/02 09:04:57;;;;;;;1.30;1.30;;;4.80;99.90;;;;;;5087936;28;20215;-86
2021/12/02 09:07:24;;;;;;;1.50;1.40;;;4.90;99.90;;;;;;5070425;28;20190;-83
2021/12/02 09:09:49;;;;;;;1.40;1.30;;;5.00;99.90;;;;;;5086646;28;20221;-84
2021/12/02 09:12:15;;;;;;;1.60;1.50;;;5.00;99.90;;;;;;5085348;28;20272;-83
2021/12/02 09:14:41;;;;;;;3.00;1.90;;;5.00;99.90;;;;;;5090006;28;20211;-84
2021/12/02 09:17:07;;;;;;;5.77;1.87;;;5.10;99.90;;;;;;5071928;28;20187;-83
2021/12/02 09:19:32;;;;;;;2.67;1.93;;;5.10;99.90;;;;;;5088939;28;20191;-84
2021/12/02 09:21:58;;;;;;;2.00;1.60;;;5.20;99.90;;;;;;5084850;28;20689;-83
2021/12/02 09:24:27;;;;;;;1.90;1.70;;;5.20;99.90;;;;;;5085275;28;20203;-84
2021/12/02 09:26:53;;;;;;;3.20;1.90;;;5.20;99.90;;;;;;5084927;28;20202;-83
2021/12/02 09:29:20;;;;;;;2.40;1.83;;;5.20;99.90;;;;;;5085489;28;20253;-84
2021/12/02 09:31:48;;;;;;;2.47;2.23;;;5.10;99.90;;;;;;5094646;28;20239;-84
2021/12/02 09:34:15;;;;;;;2.30;2.10;;;5.10;99.90;;;;;;5111043;28;20215;-84
2021/12/02 09:36:41;;;;;;;2.77;1.90;;;5.10;99.90;;;;;;5092065;28;20753;-82
2021/12/02 09:39:09;;;;;;;4.13;1.97;;;5.10;99.90;;;;;;5094819;28;20191;-83
2021/12/02 09:41:36;;;;;;;2.13;1.70;;;5.20;99.90;;;;;;5102403;28;20215;-83
2021/12/02 09:44:02;;;;;;;1.93;1.83;;;5.20;99.90;;;;;;5110432;28;20184;-84
2021/12/02 09:46:28;;;;;;;1.90;1.80;;;5.20;99.90;;;;;;5081785;28;20201;-82
2021/12/02 09:48:56;;;;;;;4.37;2.97;;;5.30;99.90;;;;;;5066730;28;20199;-82
2021/12/02 09:51:25;;;;;;;4.77;4.37;;;5.30;99.90;;;;;;5083602;28;20268;-83
2021/12/02 09:56:27;;;;;;;3.93;3.60;;;5.40;99.90;;;;;;5082726;28;20185;-83
2021/12/02 09:58:57;;;;;;;1.67;1.57;;;5.40;99.90;;;;;;5084800;28;20193;-83
2021/12/02 10:01:30;;;;;;;1.60;1.50;;;5.50;99.90;;;;;;5088351;28;20222;-83
2021/12/02 10:04:01;;;;;;;1.60;1.50;;;5.50;99.90;;;;;;5075348;28;20213;-84
2021/12/02 10:06:32;;;;;;;2.67;1.70;;;5.50;99.90;;;;;;5070480;28;20195;-83
2021/12/02 10:09:16;;;;;;;2.00;1.70;;;5.50;99.90;;;;;;5083147;28;20196;-83
2021/12/02 10:14:26;;;;;;;2.27;2.07;;;5.60;99.90;;;;;;5087409;28;20207;-84
2021/12/02 10:17:05;;;;;;;3.13;2.47;;;5.60;99.90;;;;;;5087275;28;20186;-86
2021/12/02 10:19:31;;;;;;;3.47;2.40;;;5.70;99.90;;;;;;5061792;28;20565;-86
2021/12/02 10:22:10;;;;;;;3.13;2.63;;;5.50;99.90;;;;;;5076841;28;20208;-86
2021/12/02 10:24:44;;;;;;;3.90;2.90;;;5.30;99.90;;;;;;5090673;28;20175;-86
2021/12/02 10:27:11;;;;;;;3.00;2.80;;;5.50;99.90;;;;;;5087306;28;20894;-85
2021/12/02 10:29:39;;;;;;;3.17;2.87;;;5.40;99.90;;;;;;5064108;28;20202;-84
2021/12/02 10:32:17;;;;;;;18.37;16.17;;;5.60;99.90;;;;;;5090136;28;20665;-85
2021/12/02 10:35:01;;;;;;;2.90;2.40;;;5.60;99.90;;;;;;5069056;28;20661;-85
2021/12/02 10:37:33;;;;;;;3.10;2.83;;;5.60;99.90;;;;;;5089087;28;20187;-84
2021/12/02 10:40:06;;;;;;;3.43;3.00;;;5.60;99.90;;;;;;5087164;28;20258;-85
2021/12/02 10:42:34;;;;;;;3.17;2.87;;;5.60;99.90;;;;;;5088971;28;20241;-85
2021/12/02 10:45:02;;;;;;;3.00;2.70;;;5.50;99.90;;;;;;5085651;28;20191;-84
2021/12/02 10:47:29;;;;;;;3.40;2.40;;;5.50;99.90;;;;;;5090476;28;20255;-84
2021/12/02 10:50:05;;;;;;;3.33;2.83;;;5.50;99.90;;;;;;5072428;28;20206;-84
2021/12/02 10:52:32;;;;;;;3.83;2.90;;;5.40;99.90;;;;;;5091154;28;20238;-85
2021/12/02 10:55:07;;;;;;;3.50;2.93;;;5.50;99.90;;;;;;5085110;28;20264;-85
2021/12/02 10:57:36;;;;;;;5.13;3.13;;;5.50;99.90;;;;;;5078860;28;20514;-85
2021/12/02 11:00:09;;;;;;;4.33;2.67;;;5.50;99.90;;;;;;5062963;28;20301;-84
2021/12/02 11:02:38;;;;;;;5.93;5.33;;;5.40;99.90;;;;;;5055524;28;20787;-84
2021/12/02 11:05:20;;;;;;;3.07;2.60;;;5.70;99.90;;;;;;5070829;28;20186;-85
2021/12/02 11:08:07;;;;;;;2.97;2.30;;;5.60;99.90;;;;;;5086839;28;20633;-85
2021/12/02 11:10:39;;;;;;;3.00;2.80;;;5.50;99.90;;;;;;5083635;28;20609;-84
2021/12/02 11:13:06;;;;;;;2.90;2.50;;;5.50;99.90;;;;;;5085781;28;20306;-84
2021/12/02 11:15:34;;;;;;;3.67;2.53;;;5.50;99.90;;;;;;5087949;28;20290;-84
2021/12/02 11:18:03;;;;;;;3.67;2.93;;;5.60;99.90;;;;;;5086121;28;20221;-85
2021/12/02 11:20:30;;;;;;;3.87;2.63;;;5.50;99.90;;;;;;5089027;28;20199;-85
2021/12/02 11:23:09;;;;;;;4.57;2.47;;;5.50;99.90;;;;;;5083464;28;20210;-83
2021/12/02 11:25:37;;;;;;;2.50;2.30;;;5.40;99.90;;;;;;5083630;28;20738;-84
2021/12/02 11:28:08;;;;;;;2.70;2.50;;;5.30;99.90;;;;;;5088634;28;20183;-85
2021/12/02 11:30:36;;;;;;;2.63;2.43;;;5.40;99.90;;;;;;5086266;28;20210;-84
2021/12/02 11:33:05;;;;;;;2.80;2.30;;;5.50;99.90;;;;;;5084756;28;20222;-84
2021/12/02 11:35:53;;;;;;;3.27;2.27;;;5.50;99.90;;;;;;5063670;28;20666;-84
2021/12/02 11:38:22;;;;;;;2.53;2.07;;;5.50;99.90;;;;;;5073519;28;20202;-84
2021/12/02 11:41:00;;;;;;;3.13;2.10;;;5.70;99.90;;;;;;5066674;28;20218;-84
2021/12/02 11:43:32;;;;;;;2.87;2.67;;;5.70;99.90;;;;;;5088280;28;20255;-84
2021/12/02 11:46:00;;;;;;;3.27;2.80;;;5.50;99.90;;;;;;5066193;28;20287;-84
2021/12/02 11:48:32;;;;;;;2.70;2.50;;;5.50;99.90;;;;;;5068730;28;20238;-85
2021/12/02 11:51:00;;;;;;;4.87;2.50;;;5.50;99.90;;;;;;5068380;28;20206;-84
2021/12/02 11:53:27;;;;;;;2.80;2.30;;;5.60;99.90;;;;;;5090401;28;20603;-84
2021/12/02 11:55:59;;;;;;;3.20;2.57;;;5.60;99.90;;;;;;5093729;28;20206;-84
2021/12/02 11:58:28;;;;;;;3.20;2.80;;;5.70;99.90;;;;;;5069176;28;20279;-84
2021/12/02 12:00:58;;;;;;;3.97;3.10;;;5.70;99.90;;;;;;5068179;28;20183;-85
2021/12/02 12:03:44;;;;;;;6.37;5.50;;;5.70;99.90;;;;;;5071906;28;20591;-85
2021/12/02 12:06:24;;;;;;;2.87;2.67;;;5.70;99.90;;;;;;5086124;28;20192;-85
2021/12/02 12:08:52;;;;;;;6.40;4.73;;;5.70;99.90;;;;;;5089387;28;20248;-85
2021/12/02 12:11:30;;;;;;;5.33;2.67;;;5.70;98.90;;;;;;5089634;28;20215;-85
2021/12/02 12:14:01;;;;;;;6.63;4.97;;;5.70;99.70;;;;;;5086526;28;20291;-85
2021/12/02 12:16:32;;;;;;;5.20;2.90;;;5.80;99.90;;;;;;5086143;28;20211;-83
2021/12/02 12:19:14;;;;;;;6.77;5.10;;;5.90;99.90;;;;;;5103256;28;20229;-85
2021/12/02 12:21:42;;;;;;;2.73;2.50;;;5.80;99.90;;;;;;5091046;28;20210;-85
2021/12/02 12:24:09;;;;;;;6.30;5.17;;;5.80;98.70;;;;;;5099299;28;20187;-84
2021/12/02 12:26:42;;;;;;;3.07;2.40;;;5.90;99.90;;;;;;5109041;28;20206;-84
2021/12/02 12:29:13;;;;;;;8.03;7.33;;;5.90;99.90;;;;;;5096183;28;20617;-85
2021/12/02 12:34:29;;;;;;;3.30;3.00;;;6.00;98.40;;;;;;5094619;28;20210;-85
2021/12/02 12:37:00;;;;;;;6.43;5.33;;;6.00;99.10;;;;;;5098866;28;20247;-84
2021/12/02 12:39:30;;;;;;;5.10;4.33;;;6.00;99.90;;;;;;5107128;28;20190;-85
2021/12/02 12:42:17;;;;;;;2.43;2.13;;;5.90;99.90;;;;;;5101290;28;20235;-84
2021/12/02 12:44:52;;;;;;;2.77;2.23;;;5.60;97.90;;;;;;5107276;28;20187;-85
2021/12/02 12:47:20;;;;;;;4.50;2.73;;;5.50;98.40;;;;;;5091577;28;20197;-85
2021/12/02 12:49:46;;;;;;;4.23;2.10;;;5.50;99.70;;;;;;5091750;28;20294;-85
2021/12/02 12:52:21;;;;;;;2.37;1.70;;;5.50;99.40;;;;;;5083297;28;20301;-85
2021/12/02 12:55:15;;;;;;;2.90;2.60;;;5.50;97.80;;;;;;5089116;28;20271;-85
2021/12/02 12:58:06;;;;;;;25.57;22.33;;;5.40;94.40;;;;;;5091181;28;20214;-85
2021/12/02 13:00:41;;;;;;;89.17;56.83;;;5.40;92.60;;;;;;5090509;28;20212;-85
2021/12/02 13:03:15;;;;;;;54.23;35.67;;;5.40;91.80;;;;;;5087301;28;20190;-85
2021/12/02 13:06:03;;;;;;;4.10;3.17;;;5.40;92.90;;;;;;5082059;28;20206;-85
2021/12/02 13:08:35;;;;;;;3.23;1.57;;;5.60;93.70;;;;;;5087111;28;20231;-85
2021/12/02 13:11:24;;;;;;;3.00;1.50;;;5.50;95.80;;;;;;5089060;28;20308;-85
2021/12/02 13:13:51;;;;;;;2.23;2.00;;;5.30;97.30;;;;;;5087426;28;20259;-84
2021/12/02 13:16:17;;;;;;;3.70;2.17;;;5.30;97.40;;;;;;5087266;28;20569;-85
2021/12/02 13:18:50;;;;;;;3.03;1.67;;;5.30;97.40;;;;;;5070553;28;20182;-84
2021/12/02 13:21:24;;;;;;;3.10;2.10;;;5.20;97.40;;;;;;5073716;28;20211;-85
2021/12/02 13:23:56;;;;;;;2.77;2.13;;;5.10;98.10;;;;;;5084143;28;20191;-87
2021/12/02 13:26:46;;;;;;;3.20;2.00;;;5.20;98.20;;;;;;5070638;28;20190;-85
2021/12/02 13:29:16;;;;;;;2.13;1.93;;;5.20;98.60;;;;;;5070632;28;20198;-85
2021/12/02 13:31:51;;;;;;;2.07;1.87;;;5.30;98.40;;;;;;5086236;28;20222;-85
2021/12/02 13:34:19;;;;;;;2.30;2.10;;;5.30;98.50;;;;;;5084745;28;20270;-85
2021/12/02 13:36:51;;;;;;;2.53;1.60;;;5.40;96.00;;;;;;5087392;28;20179;-85